sensor_id;sensor_type;location;lat;lon;timestamp;temperature;humidity
24744;DHT22;12844;52.110;5.548;2023-09-19T00:02:01;24.40;58.60
24744;DHT22;12844;52.110;5.548;2023-09-19T00:04:32;24.40;58.60
24744;DHT22;12844;52.110;5.548;2023-09-19T00:06:58;24.40;58.60
24744;DHT22;12844;52.110;5.548;2023-09-19T00:09:23;24.40;58.60
24744;DHT22;12844;52.110;5.548;2023-09-19T00:11:52;24.40;58.60
24744;DHT22;12844;52.110;5.548;2023-09-19T00:14:18;24.40;58.70
24744;DHT22;12844;52.110;5.548;2023-09-19T00:16:43;24.40;58.60
24744;DHT22;12844;52.110;5.548;2023-09-19T00:19:09;24.40;58.60
24744;DHT22;12844;52.110;5.548;2023-09-19T00:21:35;24.40;58.70
24744;DHT22;12844;52.110;5.548;2023-09-19T00:24:06;24.40;58.70
24744;DHT22;12844;52.110;5.548;2023-09-19T00:26:32;24.40;58.70
24744;DHT22;12844;52.110;5.548;2023-09-19T00:28:58;24.40;58.80
24744;DHT22;12844;52.110;5.548;2023-09-19T00:31:34;24.40;58.70
24744;DHT22;12844;52.110;5.548;2023-09-19T00:33:59;24.40;58.80
24744;DHT22;12844;52.110;5.548;2023-09-19T00:36:31;24.40;58.80
24744;DHT22;12844;52.110;5.548;2023-09-19T00:38:59;24.30;58.70
24744;DHT22;12844;52.110;5.548;2023-09-19T00:41:24;24.40;58.90
24744;DHT22;12844;52.110;5.548;2023-09-19T00:43:50;24.30;58.80
24744;DHT22;12844;52.110;5.548;2023-09-19T00:46:19;24.30;58.80
24744;DHT22;12844;52.110;5.548;2023-09-19T00:48:45;24.40;58.90
24744;DHT22;12844;52.110;5.548;2023-09-19T00:51:11;24.30;58.90
24744;DHT22;12844;52.110;5.548;2023-09-19T00:53:39;24.30;58.90
24744;DHT22;12844;52.110;5.548;2023-09-19T00:56:07;24.30;58.90
24744;DHT22;12844;52.110;5.548;2023-09-19T00:58:34;24.30;58.90
24744;DHT22;12844;52.110;5.548;2023-09-19T01:01:01;24.30;58.90
24744;DHT22;12844;52.110;5.548;2023-09-19T01:03:27;24.30;58.80
24744;DHT22;12844;52.110;5.548;2023-09-19T01:05:53;24.30;58.80
24744;DHT22;12844;52.110;5.548;2023-09-19T01:08:19;24.30;58.80
24744;DHT22;12844;52.110;5.548;2023-09-19T01:11:01;24.30;58.80
24744;DHT22;12844;52.110;5.548;2023-09-19T01:16:36;24.30;58.90
24744;DHT22;12844;52.110;5.548;2023-09-19T01:30:27;24.20;58.80
24744;DHT22;12844;52.110;5.548;2023-09-19T01:32:58;24.20;58.90
24744;DHT22;12844;52.110;5.548;2023-09-19T01:35:24;24.30;58.90
24744;DHT22;12844;52.110;5.548;2023-09-19T01:37:50;24.30;58.90
24744;DHT22;12844;52.110;5.548;2023-09-19T01:40:18;24.20;58.90
24744;DHT22;12844;52.110;5.548;2023-09-19T01:43:08;24.20;58.80
24744;DHT22;12844;52.110;5.548;2023-09-19T01:45:51;24.20;58.80
24744;DHT22;12844;52.110;5.548;2023-09-19T01:48:27;24.30;58.80
24744;DHT22;12844;52.110;5.548;2023-09-19T01:53:30;24.20;58.90
24744;DHT22;12844;52.110;5.548;2023-09-19T01:55:59;24.20;59.00
24744;DHT22;12844;52.110;5.548;2023-09-19T02:00:53;24.20;58.70
24744;DHT22;12844;52.110;5.548;2023-09-19T02:03:20;24.30;58.70
24744;DHT22;12844;52.110;5.548;2023-09-19T02:05:51;24.20;58.70
24744;DHT22;12844;52.110;5.548;2023-09-19T02:08:19;24.20;58.60
24744;DHT22;12844;52.110;5.548;2023-09-19T02:10:46;24.20;58.60
24744;DHT22;12844;52.110;5.548;2023-09-19T02:13:16;24.20;59.20
24744;DHT22;12844;52.110;5.548;2023-09-19T02:15:42;24.20;58.50
24744;DHT22;12844;52.110;5.548;2023-09-19T02:18:10;24.20;58.50
24744;DHT22;12844;52.110;5.548;2023-09-19T02:20:37;24.10;58.40
24744;DHT22;12844;52.110;5.548;2023-09-19T02:23:03;24.20;58.50
24744;DHT22;12844;52.110;5.548;2023-09-19T02:25:29;24.10;58.40
24744;DHT22;12844;52.110;5.548;2023-09-19T02:27:56;24.10;58.40
24744;DHT22;12844;52.110;5.548;2023-09-19T02:30:24;24.10;58.40
24744;DHT22;12844;52.110;5.548;2023-09-19T02:32:50;24.10;58.30
24744;DHT22;12844;52.110;5.548;2023-09-19T02:35:16;24.10;58.30
24744;DHT22;12844;52.110;5.548;2023-09-19T02:37:41;24.10;58.30
24744;DHT22;12844;52.110;5.548;2023-09-19T02:40:07;24.10;58.30
24744;DHT22;12844;52.110;5.548;2023-09-19T02:42:45;24.10;58.20
24744;DHT22;12844;52.110;5.548;2023-09-19T02:45:12;24.10;58.30
24744;DHT22;12844;52.110;5.548;2023-09-19T02:47:40;24.10;58.20
24744;DHT22;12844;52.110;5.548;2023-09-19T02:50:05;24.10;58.10
24744;DHT22;12844;52.110;5.548;2023-09-19T02:52:31;24.10;58.20
24744;DHT22;12844;52.110;5.548;2023-09-19T02:54:57;24.10;58.20
24744;DHT22;12844;52.110;5.548;2023-09-19T02:57:22;24.00;58.10
24744;DHT22;12844;52.110;5.548;2023-09-19T02:59:49;24.00;58.10
24744;DHT22;12844;52.110;5.548;2023-09-19T03:02:15;24.00;58.10
24744;DHT22;12844;52.110;5.548;2023-09-19T03:04:41;24.00;58.10
24744;DHT22;12844;52.110;5.548;2023-09-19T03:07:06;24.00;58.10
24744;DHT22;12844;52.110;5.548;2023-09-19T03:09:32;24.00;58.00
24744;DHT22;12844;52.110;5.548;2023-09-19T03:11:58;24.00;58.00
24744;DHT22;12844;52.110;5.548;2023-09-19T03:14:24;24.00;58.10
24744;DHT22;12844;52.110;5.548;2023-09-19T03:16:50;24.00;58.00
24744;DHT22;12844;52.110;5.548;2023-09-19T03:19:17;24.00;58.00
24744;DHT22;12844;52.110;5.548;2023-09-19T03:21:43;24.00;58.00
24744;DHT22;12844;52.110;5.548;2023-09-19T03:24:09;24.00;58.00
24744;DHT22;12844;52.110;5.548;2023-09-19T03:26:35;24.00;58.00
24744;DHT22;12844;52.110;5.548;2023-09-19T03:29:04;24.00;58.00
24744;DHT22;12844;52.110;5.548;2023-09-19T03:31:32;23.90;57.90
24744;DHT22;12844;52.110;5.548;2023-09-19T03:33:58;23.90;57.90
24744;DHT22;12844;52.110;5.548;2023-09-19T03:36:23;23.90;57.90
24744;DHT22;12844;52.110;5.548;2023-09-19T03:38:49;23.90;57.90
24744;DHT22;12844;52.110;5.548;2023-09-19T03:41:14;23.90;57.90
24744;DHT22;12844;52.110;5.548;2023-09-19T03:43:42;23.90;57.90
24744;DHT22;12844;52.110;5.548;2023-09-19T03:46:08;23.90;57.90
24744;DHT22;12844;52.110;5.548;2023-09-19T03:48:33;23.90;57.90
24744;DHT22;12844;52.110;5.548;2023-09-19T03:50:59;23.90;57.90
24744;DHT22;12844;52.110;5.548;2023-09-19T03:53:24;23.90;57.90
24744;DHT22;12844;52.110;5.548;2023-09-19T03:55:50;23.90;57.90
24744;DHT22;12844;52.110;5.548;2023-09-19T03:58:15;23.80;57.90
24744;DHT22;12844;52.110;5.548;2023-09-19T04:00:41;23.80;57.90
24744;DHT22;12844;52.110;5.548;2023-09-19T04:03:07;23.80;57.90
24744;DHT22;12844;52.110;5.548;2023-09-19T04:05:33;23.80;57.90
24744;DHT22;12844;52.110;5.548;2023-09-19T04:07:59;23.80;57.90
24744;DHT22;12844;52.110;5.548;2023-09-19T04:10:24;23.80;57.90
24744;DHT22;12844;52.110;5.548;2023-09-19T04:12:51;23.80;57.90
24744;DHT22;12844;52.110;5.548;2023-09-19T04:15:18;23.80;57.90
24744;DHT22;12844;52.110;5.548;2023-09-19T04:17:44;23.80;57.90
24744;DHT22;12844;52.110;5.548;2023-09-19T04:20:09;23.80;57.90
24744;DHT22;12844;52.110;5.548;2023-09-19T04:22:37;23.80;57.80
24744;DHT22;12844;52.110;5.548;2023-09-19T04:25:04;23.80;57.90
24744;DHT22;12844;52.110;5.548;2023-09-19T04:27:29;23.80;57.90
24744;DHT22;12844;52.110;5.548;2023-09-19T04:29:55;23.70;57.80
24744;DHT22;12844;52.110;5.548;2023-09-19T04:32:26;23.80;57.90
24744;DHT22;12844;52.110;5.548;2023-09-19T04:34:53;23.80;57.90
24744;DHT22;12844;52.110;5.548;2023-09-19T04:37:19;23.80;57.80
24744;DHT22;12844;52.110;5.548;2023-09-19T04:39:44;23.70;57.70
24744;DHT22;12844;52.110;5.548;2023-09-19T04:42:13;23.80;57.80
24744;DHT22;12844;52.110;5.548;2023-09-19T04:44:40;23.70;57.70
24744;DHT22;12844;52.110;5.548;2023-09-19T04:47:05;23.70;57.70
24744;DHT22;12844;52.110;5.548;2023-09-19T04:49:31;23.70;57.70
24744;DHT22;12844;52.110;5.548;2023-09-19T04:51:57;23.70;57.70
24744;DHT22;12844;52.110;5.548;2023-09-19T04:54:22;23.70;57.70
24744;DHT22;12844;52.110;5.548;2023-09-19T04:56:48;23.70;57.70
24744;DHT22;12844;52.110;5.548;2023-09-19T04:59:14;23.70;57.70
24744;DHT22;12844;52.110;5.548;2023-09-19T05:01:40;23.70;57.70
24744;DHT22;12844;52.110;5.548;2023-09-19T05:04:06;23.70;57.70
24744;DHT22;12844;52.110;5.548;2023-09-19T05:06:31;23.70;57.70
24744;DHT22;12844;52.110;5.548;2023-09-19T05:08:57;23.70;57.70
24744;DHT22;12844;52.110;5.548;2023-09-19T05:11:22;23.60;57.70
24744;DHT22;12844;52.110;5.548;2023-09-19T05:13:48;23.70;57.70
24744;DHT22;12844;52.110;5.548;2023-09-19T05:16:16;23.70;57.70
24744;DHT22;12844;52.110;5.548;2023-09-19T05:18:41;23.70;57.70
24744;DHT22;12844;52.110;5.548;2023-09-19T05:21:07;23.60;57.60
24744;DHT22;12844;52.110;5.548;2023-09-19T05:23:33;23.70;57.60
24744;DHT22;12844;52.110;5.548;2023-09-19T05:25:59;23.60;57.60
24744;DHT22;12844;52.110;5.548;2023-09-19T05:28:25;23.60;57.60
24744;DHT22;12844;52.110;5.548;2023-09-19T05:30:52;23.60;57.60
24744;DHT22;12844;52.110;5.548;2023-09-19T05:33:18;23.60;57.60
24744;DHT22;12844;52.110;5.548;2023-09-19T05:35:44;23.60;57.60
24744;DHT22;12844;52.110;5.548;2023-09-19T05:38:12;23.60;57.60
24744;DHT22;12844;52.110;5.548;2023-09-19T05:40:39;23.60;57.50
24744;DHT22;12844;52.110;5.548;2023-09-19T05:43:07;23.60;57.50
24744;DHT22;12844;52.110;5.548;2023-09-19T05:45:33;23.60;57.40
24744;DHT22;12844;52.110;5.548;2023-09-19T05:48:11;23.60;57.40
24744;DHT22;12844;52.110;5.548;2023-09-19T05:50:39;23.60;57.40
24744;DHT22;12844;52.110;5.548;2023-09-19T05:53:05;23.60;57.40
24744;DHT22;12844;52.110;5.548;2023-09-19T05:55:31;23.60;57.40
24744;DHT22;12844;52.110;5.548;2023-09-19T05:57:57;23.60;57.30
24744;DHT22;12844;52.110;5.548;2023-09-19T06:00:23;23.60;57.30
24744;DHT22;12844;52.110;5.548;2023-09-19T06:02:53;23.60;57.30
24744;DHT22;12844;52.110;5.548;2023-09-19T06:05:19;23.60;57.20
24744;DHT22;12844;52.110;5.548;2023-09-19T06:07:45;23.60;57.20
24744;DHT22;12844;52.110;5.548;2023-09-19T06:10:12;23.60;57.10
24744;DHT22;12844;52.110;5.548;2023-09-19T06:12:38;23.60;57.20
24744;DHT22;12844;52.110;5.548;2023-09-19T06:15:05;23.60;57.00
24744;DHT22;12844;52.110;5.548;2023-09-19T06:17:31;23.60;57.00
24744;DHT22;12844;52.110;5.548;2023-09-19T06:19:56;23.70;57.00
24744;DHT22;12844;52.110;5.548;2023-09-19T06:22:22;23.60;56.90
24744;DHT22;12844;52.110;5.548;2023-09-19T06:24:49;23.60;56.90
24744;DHT22;12844;52.110;5.548;2023-09-19T06:27:15;23.70;57.00
24744;DHT22;12844;52.110;5.548;2023-09-19T06:29:40;23.70;57.00
24744;DHT22;12844;52.110;5.548;2023-09-19T06:32:07;23.70;57.00
24744;DHT22;12844;52.110;5.548;2023-09-19T06:34:34;23.70;56.90
24744;DHT22;12844;52.110;5.548;2023-09-19T06:36:59;23.70;56.90
24744;DHT22;12844;52.110;5.548;2023-09-19T06:39:25;23.70;56.90
24744;DHT22;12844;52.110;5.548;2023-09-19T06:41:51;23.70;56.90
24744;DHT22;12844;52.110;5.548;2023-09-19T06:44:19;23.80;56.90
24744;DHT22;12844;52.110;5.548;2023-09-19T06:46:46;23.80;56.90
24744;DHT22;12844;52.110;5.548;2023-09-19T06:49:19;23.80;57.50
24744;DHT22;12844;52.110;5.548;2023-09-19T06:51:44;23.80;56.80
24744;DHT22;12844;52.110;5.548;2023-09-19T06:54:10;23.80;56.70
24744;DHT22;12844;52.110;5.548;2023-09-19T06:56:36;23.80;56.70
24744;DHT22;12844;52.110;5.548;2023-09-19T06:59:01;23.80;56.60
24744;DHT22;12844;52.110;5.548;2023-09-19T07:01:29;23.80;56.60
24744;DHT22;12844;52.110;5.548;2023-09-19T07:03:54;23.80;56.60
24744;DHT22;12844;52.110;5.548;2023-09-19T07:06:20;23.80;56.60
24744;DHT22;12844;52.110;5.548;2023-09-19T07:08:45;23.90;56.60
24744;DHT22;12844;52.110;5.548;2023-09-19T07:11:11;23.90;56.50
24744;DHT22;12844;52.110;5.548;2023-09-19T07:13:38;23.90;56.50
24744;DHT22;12844;52.110;5.548;2023-09-19T07:16:04;23.90;56.50
24744;DHT22;12844;52.110;5.548;2023-09-19T07:18:29;23.90;56.40
24744;DHT22;12844;52.110;5.548;2023-09-19T07:20:58;23.90;56.20
24744;DHT22;12844;52.110;5.548;2023-09-19T07:23:30;23.90;56.20
24744;DHT22;12844;52.110;5.548;2023-09-19T07:26:02;24.00;56.30
24744;DHT22;12844;52.110;5.548;2023-09-19T07:28:30;24.00;56.20
24744;DHT22;12844;52.110;5.548;2023-09-19T07:30:56;24.00;56.20
24744;DHT22;12844;52.110;5.548;2023-09-19T07:33:21;24.00;56.00
24744;DHT22;12844;52.110;5.548;2023-09-19T07:35:47;24.00;55.80
24744;DHT22;12844;52.110;5.548;2023-09-19T07:38:13;24.00;55.80
24744;DHT22;12844;52.110;5.548;2023-09-19T07:40:39;24.00;55.70
24744;DHT22;12844;52.110;5.548;2023-09-19T07:43:05;24.00;55.70
24744;DHT22;12844;52.110;5.548;2023-09-19T07:45:32;24.00;55.70
24744;DHT22;12844;52.110;5.548;2023-09-19T07:47:58;24.00;55.60
24744;DHT22;12844;52.110;5.548;2023-09-19T07:50:23;24.00;55.60
24744;DHT22;12844;52.110;5.548;2023-09-19T07:52:50;24.10;55.60
24744;DHT22;12844;52.110;5.548;2023-09-19T07:55:19;24.10;55.60
24744;DHT22;12844;52.110;5.548;2023-09-19T07:57:48;24.10;55.70
24744;DHT22;12844;52.110;5.548;2023-09-19T08:00:15;24.10;55.60
24744;DHT22;12844;52.110;5.548;2023-09-19T08:02:41;24.10;55.50
24744;DHT22;12844;52.110;5.548;2023-09-19T08:05:09;24.10;55.50
24744;DHT22;12844;52.110;5.548;2023-09-19T08:07:36;24.10;55.40
24744;DHT22;12844;52.110;5.548;2023-09-19T08:10:03;24.10;55.50
24744;DHT22;12844;52.110;5.548;2023-09-19T08:12:29;24.10;55.30
24744;DHT22;12844;52.110;5.548;2023-09-19T08:14:55;24.20;55.10
24744;DHT22;12844;52.110;5.548;2023-09-19T08:17:21;24.20;55.00
24744;DHT22;12844;52.110;5.548;2023-09-19T08:19:48;24.20;55.00
24744;DHT22;12844;52.110;5.548;2023-09-19T08:22:14;24.20;54.90
24744;DHT22;12844;52.110;5.548;2023-09-19T08:24:42;24.30;54.80
24744;DHT22;12844;52.110;5.548;2023-09-19T08:27:08;24.30;54.80
24744;DHT22;12844;52.110;5.548;2023-09-19T08:29:35;24.30;54.80
24744;DHT22;12844;52.110;5.548;2023-09-19T08:32:01;24.30;54.80
24744;DHT22;12844;52.110;5.548;2023-09-19T08:34:26;24.30;54.80
24744;DHT22;12844;52.110;5.548;2023-09-19T08:36:53;24.30;54.80
24744;DHT22;12844;52.110;5.548;2023-09-19T08:39:22;24.30;54.80
24744;DHT22;12844;52.110;5.548;2023-09-19T08:41:47;24.30;54.80
24744;DHT22;12844;52.110;5.548;2023-09-19T08:44:13;24.30;54.80
24744;DHT22;12844;52.110;5.548;2023-09-19T08:46:41;24.30;54.70
24744;DHT22;12844;52.110;5.548;2023-09-19T08:50:13;24.40;54.70
24744;DHT22;12844;52.110;5.548;2023-09-19T08:52:25;24.40;54.60
24744;DHT22;12844;52.110;5.548;2023-09-19T08:54:53;24.40;54.70
24744;DHT22;12844;52.110;5.548;2023-09-19T08:57:21;24.40;54.80
24744;DHT22;12844;52.110;5.548;2023-09-19T08:59:49;24.40;54.80
24744;DHT22;12844;52.110;5.548;2023-09-19T09:02:16;24.40;54.80
24744;DHT22;12844;52.110;5.548;2023-09-19T09:04:45;24.40;54.80
24744;DHT22;12844;52.110;5.548;2023-09-19T09:07:13;24.40;54.70
24744;DHT22;12844;52.110;5.548;2023-09-19T09:09:39;24.50;54.80
24744;DHT22;12844;52.110;5.548;2023-09-19T09:12:12;24.50;54.70
24744;DHT22;12844;52.110;5.548;2023-09-19T09:14:45;24.50;54.60
24744;DHT22;12844;52.110;5.548;2023-09-19T09:17:16;24.50;54.60
24744;DHT22;12844;52.110;5.548;2023-09-19T09:19:46;24.50;54.50
24744;DHT22;12844;52.110;5.548;2023-09-19T09:22:12;24.60;54.50
24744;DHT22;12844;52.110;5.548;2023-09-19T09:24:51;24.60;54.60
24744;DHT22;12844;52.110;5.548;2023-09-19T09:27:19;24.60;54.50
24744;DHT22;12844;52.110;5.548;2023-09-19T09:29:48;24.60;54.50
24744;DHT22;12844;52.110;5.548;2023-09-19T09:34:54;24.70;54.50
24744;DHT22;12844;52.110;5.548;2023-09-19T09:37:20;24.70;54.40
24744;DHT22;12844;52.110;5.548;2023-09-19T09:39:58;24.70;54.40
24744;DHT22;12844;52.110;5.548;2023-09-19T09:42:37;24.70;54.30
24744;DHT22;12844;52.110;5.548;2023-09-19T09:45:20;24.70;54.40
24744;DHT22;12844;52.110;5.548;2023-09-19T09:48:01;24.70;54.20
24744;DHT22;12844;52.110;5.548;2023-09-19T09:50:46;24.70;54.10
24744;DHT22;12844;52.110;5.548;2023-09-19T09:53:26;24.70;54.20
24744;DHT22;12844;52.110;5.548;2023-09-19T09:56:05;24.70;54.20
24744;DHT22;12844;52.110;5.548;2023-09-19T09:58:35;24.70;54.20
24744;DHT22;12844;52.110;5.548;2023-09-19T10:01:02;24.70;54.20
24744;DHT22;12844;52.110;5.548;2023-09-19T10:03:38;24.70;54.10
24744;DHT22;12844;52.110;5.548;2023-09-19T10:06:06;24.80;54.20
24744;DHT22;12844;52.110;5.548;2023-09-19T10:09:07;24.70;54.20
24744;DHT22;12844;52.110;5.548;2023-09-19T10:11:42;24.80;54.20
24744;DHT22;12844;52.110;5.548;2023-09-19T10:14:12;24.70;54.20
24744;DHT22;12844;52.110;5.548;2023-09-19T10:16:46;24.70;54.20
24744;DHT22;12844;52.110;5.548;2023-09-19T10:19:29;24.80;54.20
24744;DHT22;12844;52.110;5.548;2023-09-19T10:21:55;24.80;54.20
24744;DHT22;12844;52.110;5.548;2023-09-19T10:24:22;24.80;54.20
24744;DHT22;12844;52.110;5.548;2023-09-19T10:26:50;24.80;54.20
24744;DHT22;12844;52.110;5.548;2023-09-19T10:29:17;24.70;54.10
24744;DHT22;12844;52.110;5.548;2023-09-19T10:31:44;24.70;54.10
24744;DHT22;12844;52.110;5.548;2023-09-19T10:34:14;24.70;54.10
24744;DHT22;12844;52.110;5.548;2023-09-19T10:36:44;24.70;54.10
24744;DHT22;12844;52.110;5.548;2023-09-19T10:39:11;24.70;54.20
24744;DHT22;12844;52.110;5.548;2023-09-19T10:41:39;24.70;54.90
24744;DHT22;12844;52.110;5.548;2023-09-19T10:44:05;24.70;54.20
24744;DHT22;12844;52.110;5.548;2023-09-19T10:46:34;24.70;54.20
24744;DHT22;12844;52.110;5.548;2023-09-19T10:49:01;24.70;54.10
24744;DHT22;12844;52.110;5.548;2023-09-19T10:51:32;24.70;54.00
24744;DHT22;12844;52.110;5.548;2023-09-19T10:54:16;24.70;54.00
24744;DHT22;12844;52.110;5.548;2023-09-19T10:56:46;24.80;54.00
24744;DHT22;12844;52.110;5.548;2023-09-19T10:59:19;24.80;54.10
24744;DHT22;12844;52.110;5.548;2023-09-19T11:01:47;24.80;54.10
24744;DHT22;12844;52.110;5.548;2023-09-19T11:07:02;24.80;54.10
24744;DHT22;12844;52.110;5.548;2023-09-19T11:09:49;24.70;54.20
24744;DHT22;12844;52.110;5.548;2023-09-19T11:26:50;24.70;54.10
24744;DHT22;12844;52.110;5.548;2023-09-19T11:29:30;24.70;54.10
24744;DHT22;12844;52.110;5.548;2023-09-19T11:31:57;24.70;54.10
24744;DHT22;12844;52.110;5.548;2023-09-19T11:40:09;24.70;54.10
24744;DHT22;12844;52.110;5.548;2023-09-19T11:42:46;24.70;54.10
24744;DHT22;12844;52.110;5.548;2023-09-19T11:48:20;24.70;54.10
24744;DHT22;12844;52.110;5.548;2023-09-19T11:50:51;24.70;54.20
24744;DHT22;12844;52.110;5.548;2023-09-19T11:53:18;24.70;54.20
24744;DHT22;12844;52.110;5.548;2023-09-19T11:55:45;24.60;54.20
24744;DHT22;12844;52.110;5.548;2023-09-19T11:58:12;24.60;54.30
24744;DHT22;12844;52.110;5.548;2023-09-19T12:00:40;24.60;54.20
24744;DHT22;12844;52.110;5.548;2023-09-19T12:03:11;24.60;54.20
24744;DHT22;12844;52.110;5.548;2023-09-19T12:05:37;24.60;54.20
24744;DHT22;12844;52.110;5.548;2023-09-19T12:08:04;24.60;54.80
24744;DHT22;12844;52.110;5.548;2023-09-19T12:10:32;24.60;54.20
24744;DHT22;12844;52.110;5.548;2023-09-19T12:12:58;24.60;54.30
24744;DHT22;12844;52.110;5.548;2023-09-19T12:15:28;24.50;54.30
24744;DHT22;12844;52.110;5.548;2023-09-19T12:17:59;24.50;54.30
24744;DHT22;12844;52.110;5.548;2023-09-19T12:20:25;24.50;54.40
24744;DHT22;12844;52.110;5.548;2023-09-19T12:22:51;24.50;54.40
24744;DHT22;12844;52.110;5.548;2023-09-19T12:25:16;24.40;54.50
24744;DHT22;12844;52.110;5.548;2023-09-19T12:27:47;24.40;54.60
24744;DHT22;12844;52.110;5.548;2023-09-19T12:30:14;24.40;54.60
24744;DHT22;12844;52.110;5.548;2023-09-19T12:32:40;24.40;54.60
24744;DHT22;12844;52.110;5.548;2023-09-19T12:35:09;24.40;54.60
24744;DHT22;12844;52.110;5.548;2023-09-19T12:37:43;24.40;54.60
24744;DHT22;12844;52.110;5.548;2023-09-19T12:40:14;24.40;54.70
24744;DHT22;12844;52.110;5.548;2023-09-19T12:42:44;24.30;54.60
24744;DHT22;12844;52.110;5.548;2023-09-19T12:45:11;24.30;54.70
24744;DHT22;12844;52.110;5.548;2023-09-19T12:47:39;24.30;54.70
24744;DHT22;12844;52.110;5.548;2023-09-19T12:50:13;24.30;54.70
24744;DHT22;12844;52.110;5.548;2023-09-19T12:55:25;24.30;54.70
24744;DHT22;12844;52.110;5.548;2023-09-19T12:58:11;24.20;54.70
24744;DHT22;12844;52.110;5.548;2023-09-19T13:00:45;24.20;54.70
24744;DHT22;12844;52.110;5.548;2023-09-19T13:05:55;24.20;54.80
24744;DHT22;12844;52.110;5.548;2023-09-19T13:08:28;24.10;54.80
24744;DHT22;12844;52.110;5.548;2023-09-19T13:11:17;24.10;54.90
24744;DHT22;12844;52.110;5.548;2023-09-19T13:13:48;24.10;54.90
24744;DHT22;12844;52.110;5.548;2023-09-19T13:16:15;24.10;55.00
24744;DHT22;12844;52.110;5.548;2023-09-19T13:18:45;24.10;55.10
24744;DHT22;12844;52.110;5.548;2023-09-19T13:21:14;24.10;55.10
24744;DHT22;12844;52.110;5.548;2023-09-19T13:23:50;24.10;55.10
24744;DHT22;12844;52.110;5.548;2023-09-19T13:26:17;24.10;55.10
24744;DHT22;12844;52.110;5.548;2023-09-19T13:28:42;24.10;55.10
24744;DHT22;12844;52.110;5.548;2023-09-19T13:31:09;24.10;55.00
24744;DHT22;12844;52.110;5.548;2023-09-19T13:33:43;24.10;55.10
24744;DHT22;12844;52.110;5.548;2023-09-19T13:36:09;24.10;55.80
24744;DHT22;12844;52.110;5.548;2023-09-19T13:38:35;24.10;55.10
24744;DHT22;12844;52.110;5.548;2023-09-19T13:41:00;24.10;55.10
24744;DHT22;12844;52.110;5.548;2023-09-19T13:43:27;24.10;55.10
24744;DHT22;12844;52.110;5.548;2023-09-19T13:45:54;24.10;55.20
24744;DHT22;12844;52.110;5.548;2023-09-19T13:48:19;24.10;55.10
24744;DHT22;12844;52.110;5.548;2023-09-19T13:50:48;24.10;55.10
24744;DHT22;12844;52.110;5.548;2023-09-19T13:53:13;24.10;55.10
24744;DHT22;12844;52.110;5.548;2023-09-19T13:55:39;24.10;55.10
24744;DHT22;12844;52.110;5.548;2023-09-19T13:58:05;24.10;55.10
24744;DHT22;12844;52.110;5.548;2023-09-19T14:00:32;24.10;55.10
24744;DHT22;12844;52.110;5.548;2023-09-19T14:03:00;24.20;55.10
24744;DHT22;12844;52.110;5.548;2023-09-19T14:05:26;24.20;55.10
24744;DHT22;12844;52.110;5.548;2023-09-19T14:07:53;24.20;55.10
24744;DHT22;12844;52.110;5.548;2023-09-19T14:10:21;24.20;55.10
24744;DHT22;12844;52.110;5.548;2023-09-19T14:12:47;24.20;55.20
24744;DHT22;12844;52.110;5.548;2023-09-19T14:15:13;24.20;55.10
24744;DHT22;12844;52.110;5.548;2023-09-19T14:17:39;24.20;55.10
24744;DHT22;12844;52.110;5.548;2023-09-19T14:20:07;24.20;55.10
24744;DHT22;12844;52.110;5.548;2023-09-19T14:22:35;24.10;55.10
24744;DHT22;12844;52.110;5.548;2023-09-19T14:25:02;24.20;55.10
24744;DHT22;12844;52.110;5.548;2023-09-19T14:27:28;24.10;55.10
24744;DHT22;12844;52.110;5.548;2023-09-19T14:29:53;24.20;55.20
24744;DHT22;12844;52.110;5.548;2023-09-19T14:32:19;24.10;55.20
24744;DHT22;12844;52.110;5.548;2023-09-19T14:34:44;24.10;55.20
24744;DHT22;12844;52.110;5.548;2023-09-19T14:37:11;24.10;55.20
24744;DHT22;12844;52.110;5.548;2023-09-19T14:39:37;24.10;55.20
24744;DHT22;12844;52.110;5.548;2023-09-19T14:42:06;24.10;55.30
24744;DHT22;12844;52.110;5.548;2023-09-19T14:44:31;24.10;55.30
24744;DHT22;12844;52.110;5.548;2023-09-19T14:46:57;24.10;55.30
24744;DHT22;12844;52.110;5.548;2023-09-19T14:49:22;24.10;55.30
24744;DHT22;12844;52.110;5.548;2023-09-19T14:51:47;24.10;55.40
24744;DHT22;12844;52.110;5.548;2023-09-19T14:54:14;24.10;55.40
24744;DHT22;12844;52.110;5.548;2023-09-19T14:56:43;24.10;55.30
24744;DHT22;12844;52.110;5.548;2023-09-19T14:59:08;24.10;55.40
24744;DHT22;12844;52.110;5.548;2023-09-19T15:01:36;24.10;55.40
24744;DHT22;12844;52.110;5.548;2023-09-19T15:04:02;24.10;55.40
24744;DHT22;12844;52.110;5.548;2023-09-19T15:06:27;24.10;55.40
24744;DHT22;12844;52.110;5.548;2023-09-19T15:08:53;24.10;55.40
24744;DHT22;12844;52.110;5.548;2023-09-19T15:11:19;24.00;55.40
24744;DHT22;12844;52.110;5.548;2023-09-19T15:13:46;24.00;55.40
24744;DHT22;12844;52.110;5.548;2023-09-19T15:16:13;24.00;55.40
24744;DHT22;12844;52.110;5.548;2023-09-19T15:18:44;24.00;55.40
24744;DHT22;12844;52.110;5.548;2023-09-19T15:21:13;24.00;55.40
24744;DHT22;12844;52.110;5.548;2023-09-19T15:23:39;24.00;55.30
24744;DHT22;12844;52.110;5.548;2023-09-19T15:26:07;24.00;55.30
24744;DHT22;12844;52.110;5.548;2023-09-19T15:28:36;24.00;55.20
24744;DHT22;12844;52.110;5.548;2023-09-19T15:31:08;24.00;55.20
24744;DHT22;12844;52.110;5.548;2023-09-19T15:33:35;24.00;55.20
24744;DHT22;12844;52.110;5.548;2023-09-19T15:36:04;24.00;55.30
24744;DHT22;12844;52.110;5.548;2023-09-19T15:38:31;24.00;55.30
24744;DHT22;12844;52.110;5.548;2023-09-19T15:40:59;24.00;55.30
24744;DHT22;12844;52.110;5.548;2023-09-19T15:43:25;24.00;55.40
24744;DHT22;12844;52.110;5.548;2023-09-19T15:45:50;24.00;55.40
24744;DHT22;12844;52.110;5.548;2023-09-19T15:48:17;24.00;55.40
24744;DHT22;12844;52.110;5.548;2023-09-19T15:50:43;24.00;55.40
24744;DHT22;12844;52.110;5.548;2023-09-19T15:53:10;24.00;55.40
24744;DHT22;12844;52.110;5.548;2023-09-19T15:55:39;24.00;55.40
24744;DHT22;12844;52.110;5.548;2023-09-19T15:58:05;24.00;55.50
24744;DHT22;12844;52.110;5.548;2023-09-19T16:00:32;24.00;55.50
24744;DHT22;12844;52.110;5.548;2023-09-19T16:03:00;24.00;56.20
24744;DHT22;12844;52.110;5.548;2023-09-19T16:05:26;24.00;55.50
24744;DHT22;12844;52.110;5.548;2023-09-19T16:07:52;24.00;55.50
24744;DHT22;12844;52.110;5.548;2023-09-19T16:10:18;24.00;55.50
24744;DHT22;12844;52.110;5.548;2023-09-19T16:12:43;24.00;55.50
24744;DHT22;12844;52.110;5.548;2023-09-19T16:15:09;23.90;55.40
24744;DHT22;12844;52.110;5.548;2023-09-19T16:17:39;24.00;55.50
24744;DHT22;12844;52.110;5.548;2023-09-19T16:20:05;24.00;55.50
24744;DHT22;12844;52.110;5.548;2023-09-19T16:22:38;24.00;55.50
24744;DHT22;12844;52.110;5.548;2023-09-19T16:25:04;23.90;55.50
24744;DHT22;12844;52.110;5.548;2023-09-19T16:27:30;23.90;55.60
24744;DHT22;12844;52.110;5.548;2023-09-19T16:29:56;23.90;55.60